Weather at Johnson City Stolport Airport

Public forecast

Using degrees Fahrenheit for public forecast. Weather courtesy of forecast.io.

Closest aviation weather report (METAR) to Johnson City Stolport Airport

Closest report is Elizabethton Municipal Airport, 6.6 nm (12.2 km) E. Retrieved 2021/06/23 01:55 UTC (11 minutes ago):

K0A9 230155Z AUTO 00000KT 10SM BKN050 OVC060 18/15 A3004 RMK A01

Closest aviation forecast (TAF) to Johnson City Stolport Airport

Closest forecast is Tri-Cities Regional TN/VA Airport, 8.2 nm (15.2 km) NW. Retrieved 2021-06-23 00:33 UTC (2 hours ago):

TAF KTRI 222330Z 2300/2324 VRB03KT P6SM FEW060 SCT080 BKN110